sensor_id;sensor_type;location;lat;lon;timestamp;pressure;altitude;pressure_sealevel;temperature;humidity
13836;BME280;6988;52.614;13.500;2023-07-02T00:01:10;54077.41;;;-143.77;89.54
13836;BME280;6988;52.614;13.500;2023-07-02T00:06:02;54034.31;;;-143.77;89.32
13836;BME280;6988;52.614;13.500;2023-07-02T00:10:54;54054.81;;;-143.77;89.15
13836;BME280;6988;52.614;13.500;2023-07-02T00:15:46;54042.50;;;-143.77;89.11
13836;BME280;6988;52.614;13.500;2023-07-02T00:20:39;54040.47;;;-143.77;89.11
13836;BME280;6988;52.614;13.500;2023-07-02T00:25:32;54046.63;;;-143.77;89.26
13836;BME280;6988;52.614;13.500;2023-07-02T00:30:24;54073.28;;;-143.77;88.96
13836;BME280;6988;52.614;13.500;2023-07-02T00:35:16;54063.03;;;-143.77;89.04
13836;BME280;6988;52.614;13.500;2023-07-02T00:40:10;54056.88;;;-143.77;88.90
13836;BME280;6988;52.614;13.500;2023-07-02T00:45:03;54069.19;;;-143.77;88.76
13836;BME280;6988;52.614;13.500;2023-07-02T00:49:56;54060.97;;;-143.77;88.78
13836;BME280;6988;52.614;13.500;2023-07-02T00:54:47;54046.63;;;-143.77;88.69
13836;BME280;6988;52.614;13.500;2023-07-02T00:59:41;54038.41;;;-143.77;88.17
13836;BME280;6988;52.614;13.500;2023-07-02T01:04:37;54052.78;;;-143.77;88.15
13836;BME280;6988;52.614;13.500;2023-07-02T01:09:28;54063.03;;;-143.77;87.81
13836;BME280;6988;52.614;13.500;2023-07-02T01:14:25;54060.97;;;-143.77;87.83
13836;BME280;6988;52.614;13.500;2023-07-02T01:19:38;54097.91;;;-143.77;87.68
13836;BME280;6988;52.614;13.500;2023-07-02T01:24:33;54048.66;;;-143.77;87.64
13836;BME280;6988;52.614;13.500;2023-07-02T01:29:25;54075.34;;;-143.77;86.79
13836;BME280;6988;52.614;13.500;2023-07-02T01:34:16;54056.88;;;-143.77;86.42
13836;BME280;6988;52.614;13.500;2023-07-02T01:39:10;54077.41;;;-143.77;86.79
13836;BME280;6988;52.614;13.500;2023-07-02T01:44:02;54056.88;;;-143.77;86.07
13836;BME280;6988;52.614;13.500;2023-07-02T01:48:54;54069.19;;;-143.77;86.11
13836;BME280;6988;52.614;13.500;2023-07-02T01:53:46;54097.91;;;-143.77;86.21
13836;BME280;6988;52.614;13.500;2023-07-02T01:58:39;54099.97;;;-143.77;86.45
13836;BME280;6988;52.614;13.500;2023-07-02T02:03:31;54067.13;;;-143.77;86.65
13836;BME280;6988;52.614;13.500;2023-07-02T02:08:23;54087.66;;;-143.77;86.64
13836;BME280;6988;52.614;13.500;2023-07-02T02:13:15;54069.19;;;-143.77;86.94
13836;BME280;6988;52.614;13.500;2023-07-02T02:18:08;54081.50;;;-143.77;87.21
13836;BME280;6988;52.614;13.500;2023-07-02T02:23:00;54081.50;;;-143.77;86.99
13836;BME280;6988;52.614;13.500;2023-07-02T02:27:52;54081.50;;;-143.77;87.08
13836;BME280;6988;52.614;13.500;2023-07-02T02:32:45;54065.09;;;-143.77;87.23
13836;BME280;6988;52.614;13.500;2023-07-02T02:37:38;54097.91;;;-143.77;86.98
13836;BME280;6988;52.614;13.500;2023-07-02T02:42:32;54106.13;;;-143.77;87.01
13836;BME280;6988;52.614;13.500;2023-07-02T02:47:26;54083.56;;;-143.77;86.34
13836;BME280;6988;52.614;13.500;2023-07-02T02:52:20;54102.00;;;-143.77;86.29
13836;BME280;6988;52.614;13.500;2023-07-02T02:57:14;54104.06;;;-143.77;85.86
13836;BME280;6988;52.614;13.500;2023-07-02T03:02:06;54118.44;;;-143.77;85.52
13836;BME280;6988;52.614;13.500;2023-07-02T03:06:59;54145.09;;;-143.77;85.83
13836;BME280;6988;52.614;13.500;2023-07-02T03:11:51;54126.63;;;-143.77;85.66
13836;BME280;6988;52.614;13.500;2023-07-02T03:16:44;54118.44;;;-143.77;85.41
13836;BME280;6988;52.614;13.500;2023-07-02T03:21:36;54118.44;;;-143.77;85.48
13836;BME280;6988;52.614;13.500;2023-07-02T03:26:28;54141.00;;;-143.77;85.03
13836;BME280;6988;52.614;13.500;2023-07-02T03:31:20;54116.38;;;-143.77;85.29
13836;BME280;6988;52.614;13.500;2023-07-02T03:36:13;54112.28;;;-143.77;85.47
13836;BME280;6988;52.614;13.500;2023-07-02T03:41:05;54173.81;;;-143.77;85.53
13836;BME280;6988;52.614;13.500;2023-07-02T03:45:57;54130.75;;;-143.77;85.68
13836;BME280;6988;52.614;13.500;2023-07-02T03:50:50;54130.75;;;-143.77;85.36
13836;BME280;6988;52.614;13.500;2023-07-02T03:55:43;54114.31;;;-143.77;85.40
13836;BME280;6988;52.614;13.500;2023-07-02T04:00:35;54106.13;;;-143.77;85.71
13836;BME280;6988;52.614;13.500;2023-07-02T04:05:27;54114.31;;;-143.77;85.69
13836;BME280;6988;52.614;13.500;2023-07-02T04:10:19;54122.53;;;-143.77;85.16
13836;BME280;6988;52.614;13.500;2023-07-02T04:15:12;54095.88;;;-143.77;84.48
13836;BME280;6988;52.614;13.500;2023-07-02T04:20:05;54130.75;;;-143.77;83.26
13836;BME280;6988;52.614;13.500;2023-07-02T04:24:58;54108.16;;;-143.77;82.64
13836;BME280;6988;52.614;13.500;2023-07-02T04:29:50;54138.94;;;-143.77;82.68
13836;BME280;6988;52.614;13.500;2023-07-02T04:34:43;54108.16;;;-143.77;82.01
13836;BME280;6988;52.614;13.500;2023-07-02T04:39:35;54143.06;;;-143.77;81.94
13836;BME280;6988;52.614;13.500;2023-07-02T04:44:27;54102.00;;;-143.77;82.24
13836;BME280;6988;52.614;13.500;2023-07-02T04:49:20;54128.69;;;-143.77;82.14
13836;BME280;6988;52.614;13.500;2023-07-02T04:54:14;54089.72;;;-143.77;80.90
13836;BME280;6988;52.614;13.500;2023-07-02T04:59:05;54130.75;;;-143.77;81.15
13836;BME280;6988;52.614;13.500;2023-07-02T05:03:57;54102.00;;;-143.77;81.03
13836;BME280;6988;52.614;13.500;2023-07-02T05:08:49;54099.97;;;-143.77;80.76
13836;BME280;6988;52.614;13.500;2023-07-02T05:13:43;54108.16;;;-143.77;79.76
13836;BME280;6988;52.614;13.500;2023-07-02T05:18:35;54077.41;;;-143.77;79.39
13836;BME280;6988;52.614;13.500;2023-07-02T05:23:27;54108.16;;;-143.77;78.88
13836;BME280;6988;52.614;13.500;2023-07-02T05:28:19;54089.72;;;-143.77;78.88
13836;BME280;6988;52.614;13.500;2023-07-02T05:33:12;54073.28;;;-143.77;77.35
13836;BME280;6988;52.614;13.500;2023-07-02T05:38:04;54102.00;;;-143.77;76.86
13836;BME280;6988;52.614;13.500;2023-07-02T05:42:56;54060.97;;;-143.77;77.66
13836;BME280;6988;52.614;13.500;2023-07-02T05:47:48;54087.66;;;-143.77;77.01
13836;BME280;6988;52.614;13.500;2023-07-02T05:52:41;54077.41;;;-143.77;75.71
13836;BME280;6988;52.614;13.500;2023-07-02T05:57:33;54054.81;;;-143.77;75.19
13836;BME280;6988;52.614;13.500;2023-07-02T06:02:25;54042.50;;;-143.77;73.38
13836;BME280;6988;52.614;13.500;2023-07-02T06:07:17;54050.72;;;-143.77;72.06
13836;BME280;6988;52.614;13.500;2023-07-02T06:12:10;54032.25;;;-143.77;71.71
13836;BME280;6988;52.614;13.500;2023-07-02T06:17:02;53995.31;;;-143.77;70.54
13836;BME280;6988;52.614;13.500;2023-07-02T06:21:57;53999.44;;;-143.77;68.78
13836;BME280;6988;52.614;13.500;2023-07-02T06:26:49;54024.06;;;-143.77;69.40
13836;BME280;6988;52.614;13.500;2023-07-02T06:31:42;54011.75;;;-143.77;68.83
13836;BME280;6988;52.614;13.500;2023-07-02T06:36:34;54036.38;;;-143.77;68.11
13836;BME280;6988;52.614;13.500;2023-07-02T06:41:26;53954.28;;;-143.77;67.56
13836;BME280;6988;52.614;13.500;2023-07-02T06:46:19;53954.28;;;-143.77;66.05
13836;BME280;6988;52.614;13.500;2023-07-02T06:51:13;53931.72;;;-143.77;65.33
13836;BME280;6988;52.614;13.500;2023-07-02T06:56:07;53849.66;;;-143.77;64.04
13836;BME280;6988;52.614;13.500;2023-07-02T07:00:59;53892.75;;;-143.77;63.78
13836;BME280;6988;52.614;13.500;2023-07-02T07:05:51;53900.94;;;-143.77;61.35
13836;BME280;6988;52.614;13.500;2023-07-02T07:10:45;53894.78;;;-143.77;60.83
13836;BME280;6988;52.614;13.500;2023-07-02T07:15:37;53810.69;;;-143.77;61.23
13836;BME280;6988;52.614;13.500;2023-07-02T07:20:30;53732.72;;;-143.77;60.96
13836;BME280;6988;52.614;13.500;2023-07-02T07:25:23;53847.59;;;-143.77;58.92
13836;BME280;6988;52.614;13.500;2023-07-02T07:30:16;53905.06;;;-143.77;59.13
13836;BME280;6988;52.614;13.500;2023-07-02T07:35:13;53730.66;;;-143.77;58.98
13836;BME280;6988;52.614;13.500;2023-07-02T07:40:07;53831.19;;;-143.77;59.43
13836;BME280;6988;52.614;13.500;2023-07-02T07:44:59;53882.50;;;-143.77;58.36
13836;BME280;6988;52.614;13.500;2023-07-02T07:49:52;53779.91;;;-143.77;57.99
13836;BME280;6988;52.614;13.500;2023-07-02T07:54:45;53835.31;;;-143.77;57.90
13836;BME280;6988;52.614;13.500;2023-07-02T07:59:37;53950.19;;;-143.77;57.23
13836;BME280;6988;52.614;13.500;2023-07-02T08:04:29;53921.47;;;-143.77;58.14
13836;BME280;6988;52.614;13.500;2023-07-02T08:09:23;53917.38;;;-143.77;59.55
13836;BME280;6988;52.614;13.500;2023-07-02T08:14:17;53878.38;;;-143.77;60.03
13836;BME280;6988;52.614;13.500;2023-07-02T08:19:09;53839.41;;;-143.77;60.16
13836;BME280;6988;52.614;13.500;2023-07-02T08:24:02;53987.13;;;-143.77;60.28
13836;BME280;6988;52.614;13.500;2023-07-02T08:28:55;53925.56;;;-143.77;61.26
13836;BME280;6988;52.614;13.500;2023-07-02T08:33:47;53911.22;;;-143.77;60.89
13836;BME280;6988;52.614;13.500;2023-07-02T08:38:39;53944.03;;;-143.77;61.38
13836;BME280;6988;52.614;13.500;2023-07-02T08:43:35;53909.16;;;-143.77;61.60
13836;BME280;6988;52.614;13.500;2023-07-02T08:48:29;53970.72;;;-143.77;60.81
13836;BME280;6988;52.614;13.500;2023-07-02T08:53:21;53933.78;;;-143.77;60.02
13836;BME280;6988;52.614;13.500;2023-07-02T08:58:16;53946.09;;;-143.77;59.98
13836;BME280;6988;52.614;13.500;2023-07-02T09:03:13;53966.59;;;-143.77;59.04
13836;BME280;6988;52.614;13.500;2023-07-02T09:08:07;53944.03;;;-143.77;59.60
13836;BME280;6988;52.614;13.500;2023-07-02T09:13:03;53888.63;;;-143.77;59.15
13836;BME280;6988;52.614;13.500;2023-07-02T09:17:55;53878.38;;;-143.77;57.16
13836;BME280;6988;52.614;13.500;2023-07-02T09:22:54;53872.22;;;-143.77;55.81
13836;BME280;6988;52.614;13.500;2023-07-02T09:27:47;53872.22;;;-143.77;55.39
13836;BME280;6988;52.614;13.500;2023-07-02T09:32:39;53839.41;;;-143.77;54.46
13836;BME280;6988;52.614;13.500;2023-07-02T09:37:32;53749.13;;;-143.77;52.13
13836;BME280;6988;52.614;13.500;2023-07-02T09:42:26;53730.66;;;-143.77;52.27
13836;BME280;6988;52.614;13.500;2023-07-02T09:47:22;53716.31;;;-143.77;52.39
13836;BME280;6988;52.614;13.500;2023-07-02T09:52:16;53755.28;;;-143.77;48.70
13836;BME280;6988;52.614;13.500;2023-07-02T09:57:08;53814.78;;;-143.77;48.46
13836;BME280;6988;52.614;13.500;2023-07-02T10:02:00;53816.84;;;-143.77;49.58
13836;BME280;6988;52.614;13.500;2023-07-02T10:06:55;53609.63;;;-143.77;50.23
13836;BME280;6988;52.614;13.500;2023-07-02T10:11:48;53523.47;;;-143.77;49.51
13836;BME280;6988;52.614;13.500;2023-07-02T10:16:51;53496.81;;;-143.77;48.09
13836;BME280;6988;52.614;13.500;2023-07-02T10:21:43;53736.81;;;-143.77;46.77
13836;BME280;6988;52.614;13.500;2023-07-02T10:26:38;53790.16;;;-143.77;48.98
13836;BME280;6988;52.614;13.500;2023-07-02T10:31:30;53790.16;;;-143.77;50.23
13836;BME280;6988;52.614;13.500;2023-07-02T10:36:24;53779.91;;;-143.77;50.40
13836;BME280;6988;52.614;13.500;2023-07-02T10:41:25;53802.47;;;-143.77;48.67
13836;BME280;6988;52.614;13.500;2023-07-02T10:46:20;53831.19;;;-143.77;51.36
13836;BME280;6988;52.614;13.500;2023-07-02T10:51:12;53827.09;;;-143.77;51.19
13836;BME280;6988;52.614;13.500;2023-07-02T10:56:04;53572.72;;;-143.77;47.40
13836;BME280;6988;52.614;13.500;2023-07-02T11:00:56;53611.69;;;-143.77;46.16
13836;BME280;6988;52.614;13.500;2023-07-02T11:05:51;53548.09;;;-143.77;44.91
13836;BME280;6988;52.614;13.500;2023-07-02T11:10:43;53755.28;;;-143.77;42.84
13836;BME280;6988;52.614;13.500;2023-07-02T11:15:36;53755.28;;;-143.77;44.36
13836;BME280;6988;52.614;13.500;2023-07-02T11:20:34;53511.16;;;-143.77;43.98
13836;BME280;6988;52.614;13.500;2023-07-02T11:25:27;53488.59;;;-143.77;42.59
13836;BME280;6988;52.614;13.500;2023-07-02T11:30:19;53474.25;;;-143.77;41.82
13836;BME280;6988;52.614;13.500;2023-07-02T11:35:11;53463.97;;;-143.77;40.35
13836;BME280;6988;52.614;13.500;2023-07-02T11:40:04;53398.34;;;-143.77;40.85
13836;BME280;6988;52.614;13.500;2023-07-02T11:44:57;53597.31;;;-143.77;39.04
13836;BME280;6988;52.614;13.500;2023-07-02T11:49:48;53359.34;;;-143.77;39.81
13836;BME280;6988;52.614;13.500;2023-07-02T11:54:40;53658.88;;;-143.77;39.96
13836;BME280;6988;52.614;13.500;2023-07-02T11:59:32;53662.97;;;-143.77;39.77
13836;BME280;6988;52.614;13.500;2023-07-02T12:04:25;53414.75;;;-143.77;38.49
13836;BME280;6988;52.614;13.500;2023-07-02T12:09:17;53658.88;;;-143.77;39.58
13836;BME280;6988;52.614;13.500;2023-07-02T12:14:08;53632.19;;;-143.77;38.58
13836;BME280;6988;52.614;13.500;2023-07-02T12:19:00;53437.31;;;-143.77;39.25
13836;BME280;6988;52.614;13.500;2023-07-02T12:23:53;53665.03;;;-143.77;39.35
13836;BME280;6988;52.614;13.500;2023-07-02T12:28:45;53593.22;;;-143.77;40.33
13836;BME280;6988;52.614;13.500;2023-07-02T12:33:37;53515.25;;;-143.77;38.95
13836;BME280;6988;52.614;13.500;2023-07-02T12:38:29;53363.47;;;-143.77;38.30
13836;BME280;6988;52.614;13.500;2023-07-02T12:43:22;53367.56;;;-143.77;38.51
13836;BME280;6988;52.614;13.500;2023-07-02T12:48:14;53383.97;;;-143.77;38.65
13836;BME280;6988;52.614;13.500;2023-07-02T12:53:06;53593.22;;;-143.77;38.24
13836;BME280;6988;52.614;13.500;2023-07-02T12:57:57;53613.72;;;-143.77;38.81
13836;BME280;6988;52.614;13.500;2023-07-02T13:02:50;53572.72;;;-143.77;39.58
13836;BME280;6988;52.614;13.500;2023-07-02T13:07:43;53603.47;;;-143.77;40.38
13836;BME280;6988;52.614;13.500;2023-07-02T13:12:35;53597.31;;;-143.77;38.58
13836;BME280;6988;52.614;13.500;2023-07-02T13:17:27;53488.59;;;-143.77;38.69
13836;BME280;6988;52.614;13.500;2023-07-02T13:22:20;53470.13;;;-143.77;39.61
13836;BME280;6988;52.614;13.500;2023-07-02T13:27:15;53455.78;;;-143.77;37.73
13836;BME280;6988;52.614;13.500;2023-07-02T13:32:08;53527.56;;;-143.77;38.33
13836;BME280;6988;52.614;13.500;2023-07-02T13:36:59;53470.13;;;-143.77;38.10
13836;BME280;6988;52.614;13.500;2023-07-02T13:41:54;53457.81;;;-143.77;37.30
13836;BME280;6988;52.614;13.500;2023-07-02T13:46:47;53589.13;;;-143.77;37.93
13836;BME280;6988;52.614;13.500;2023-07-02T13:51:39;53505.00;;;-143.77;37.92
13836;BME280;6988;52.614;13.500;2023-07-02T13:56:31;53488.59;;;-143.77;38.19
13836;BME280;6988;52.614;13.500;2023-07-02T14:01:24;53570.66;;;-143.77;37.72
13836;BME280;6988;52.614;13.500;2023-07-02T14:06:16;53474.25;;;-143.77;38.51
13836;BME280;6988;52.614;13.500;2023-07-02T14:11:08;53492.69;;;-143.77;37.30
13836;BME280;6988;52.614;13.500;2023-07-02T14:16:00;53500.91;;;-143.77;36.21
13836;BME280;6988;52.614;13.500;2023-07-02T14:20:54;53548.09;;;-143.77;35.15
13836;BME280;6988;52.614;13.500;2023-07-02T14:25:45;53595.28;;;-143.77;36.89
13836;BME280;6988;52.614;13.500;2023-07-02T14:30:37;53582.97;;;-143.77;37.16
13836;BME280;6988;52.614;13.500;2023-07-02T14:35:30;53548.09;;;-143.77;36.78
13836;BME280;6988;52.614;13.500;2023-07-02T14:40:23;53589.13;;;-143.77;37.25
13836;BME280;6988;52.614;13.500;2023-07-02T14:45:15;53621.94;;;-143.77;36.87
13836;BME280;6988;52.614;13.500;2023-07-02T14:50:07;53654.75;;;-143.77;38.05
13836;BME280;6988;52.614;13.500;2023-07-02T14:54:59;53679.38;;;-143.77;38.67
13836;BME280;6988;52.614;13.500;2023-07-02T14:59:53;53658.88;;;-143.77;39.04
13836;BME280;6988;52.614;13.500;2023-07-02T15:04:45;53626.03;;;-143.77;38.92
13836;BME280;6988;52.614;13.500;2023-07-02T15:09:37;53595.28;;;-143.77;39.04
13836;BME280;6988;52.614;13.500;2023-07-02T15:14:29;53650.66;;;-143.77;38.79
13836;BME280;6988;52.614;13.500;2023-07-02T15:24:45;53658.88;;;-143.77;39.06
13836;BME280;6988;52.614;13.500;2023-07-02T15:29:37;53697.84;;;-143.77;39.57
13836;BME280;6988;52.614;13.500;2023-07-02T15:34:29;53667.06;;;-143.77;39.59
13836;BME280;6988;52.614;13.500;2023-07-02T15:39:21;53626.03;;;-143.77;40.15
13836;BME280;6988;52.614;13.500;2023-07-02T15:44:16;53642.47;;;-143.77;40.36
13836;BME280;6988;52.614;13.500;2023-07-02T15:49:08;53605.53;;;-143.77;39.65
13836;BME280;6988;52.614;13.500;2023-07-02T15:54:01;53587.06;;;-143.77;39.69
13836;BME280;6988;52.614;13.500;2023-07-02T15:58:53;53570.66;;;-143.77;38.58
13836;BME280;6988;52.614;13.500;2023-07-02T16:03:46;53585.00;;;-143.77;39.04
13836;BME280;6988;52.614;13.500;2023-07-02T16:08:39;53580.91;;;-143.77;38.37
13836;BME280;6988;52.614;13.500;2023-07-02T16:13:31;53660.91;;;-143.77;38.40
13836;BME280;6988;52.614;13.500;2023-07-02T16:18:23;53632.19;;;-143.77;38.60
13836;BME280;6988;52.614;13.500;2023-07-02T16:23:16;53669.13;;;-143.77;38.39
13836;BME280;6988;52.614;13.500;2023-07-02T16:28:07;53667.06;;;-143.77;39.04
13836;BME280;6988;52.614;13.500;2023-07-02T16:32:59;53669.13;;;-143.77;38.62
13836;BME280;6988;52.614;13.500;2023-07-02T16:37:51;53658.88;;;-143.77;39.42
13836;BME280;6988;52.614;13.500;2023-07-02T16:42:44;53681.44;;;-143.77;39.15
13836;BME280;6988;52.614;13.500;2023-07-02T16:47:36;53732.72;;;-143.77;39.80
13836;BME280;6988;52.614;13.500;2023-07-02T16:52:28;53742.97;;;-143.77;40.36
13836;BME280;6988;52.614;13.500;2023-07-02T16:57:20;53704.00;;;-143.77;40.87
13836;BME280;6988;52.614;13.500;2023-07-02T17:02:13;53738.88;;;-143.77;39.78
13836;BME280;6988;52.614;13.500;2023-07-02T17:07:05;53722.47;;;-143.77;39.50
13836;BME280;6988;52.614;13.500;2023-07-02T17:11:58;53720.41;;;-143.77;40.05
13836;BME280;6988;52.614;13.500;2023-07-02T17:16:53;53730.66;;;-143.77;40.32
13836;BME280;6988;52.614;13.500;2023-07-02T17:21:49;53732.72;;;-143.77;40.52
13836;BME280;6988;52.614;13.500;2023-07-02T17:26:41;53761.44;;;-143.77;41.66
13836;BME280;6988;52.614;13.500;2023-07-02T17:31:33;53755.28;;;-143.77;41.54
13836;BME280;6988;52.614;13.500;2023-07-02T17:36:27;53769.66;;;-143.77;41.09
13836;BME280;6988;52.614;13.500;2023-07-02T17:41:20;53724.50;;;-143.77;41.75
13836;BME280;6988;52.614;13.500;2023-07-02T17:46:11;53763.50;;;-143.77;41.65
13836;BME280;6988;52.614;13.500;2023-07-02T17:51:03;53740.94;;;-143.77;41.07
13836;BME280;6988;52.614;13.500;2023-07-02T17:55:55;53794.28;;;-143.77;40.72
13836;BME280;6988;52.614;13.500;2023-07-02T18:00:50;53798.38;;;-143.77;41.14
13836;BME280;6988;52.614;13.500;2023-07-02T18:05:42;53779.91;;;-143.77;41.25
13836;BME280;6988;52.614;13.500;2023-07-02T18:10:34;53790.16;;;-143.77;41.26
13836;BME280;6988;52.614;13.500;2023-07-02T18:15:25;53816.84;;;-143.77;41.44
13836;BME280;6988;52.614;13.500;2023-07-02T18:20:19;53831.19;;;-143.77;41.93
13836;BME280;6988;52.614;13.500;2023-07-02T18:25:11;53786.06;;;-143.77;42.18
13836;BME280;6988;52.614;13.500;2023-07-02T18:30:04;53804.53;;;-143.77;41.92
13836;BME280;6988;52.614;13.500;2023-07-02T18:34:56;53794.28;;;-143.77;43.27
13836;BME280;6988;52.614;13.500;2023-07-02T18:39:49;53814.78;;;-143.77;42.24
13836;BME280;6988;52.614;13.500;2023-07-02T18:44:41;53874.28;;;-143.77;42.70
13836;BME280;6988;52.614;13.500;2023-07-02T18:49:35;53833.25;;;-143.77;42.68
13836;BME280;6988;52.614;13.500;2023-07-02T18:54:27;53847.59;;;-143.77;42.77
13836;BME280;6988;52.614;13.500;2023-07-02T18:59:20;53823.00;;;-143.77;43.48
13836;BME280;6988;52.614;13.500;2023-07-02T19:04:13;53855.81;;;-143.77;43.50
13836;BME280;6988;52.614;13.500;2023-07-02T19:09:04;53835.31;;;-143.77;43.17
13836;BME280;6988;52.614;13.500;2023-07-02T19:13:56;53896.84;;;-143.77;43.73
13836;BME280;6988;52.614;13.500;2023-07-02T19:18:49;53855.81;;;-143.77;44.29
13836;BME280;6988;52.614;13.500;2023-07-02T19:23:41;53872.22;;;-143.77;44.56
13836;BME280;6988;52.614;13.500;2023-07-02T19:28:33;53894.78;;;-143.77;44.29
13836;BME280;6988;52.614;13.500;2023-07-02T19:33:24;53880.44;;;-143.77;44.54
13836;BME280;6988;52.614;13.500;2023-07-02T19:38:17;53851.72;;;-143.77;45.68
13836;BME280;6988;52.614;13.500;2023-07-02T19:43:09;53872.22;;;-143.77;45.66
13836;BME280;6988;52.614;13.500;2023-07-02T19:48:01;53923.53;;;-143.77;47.49
13836;BME280;6988;52.614;13.500;2023-07-02T19:52:53;53886.59;;;-143.77;47.40
13836;BME280;6988;52.614;13.500;2023-07-02T19:57:46;53903.00;;;-143.77;48.34
13836;BME280;6988;52.614;13.500;2023-07-02T20:02:38;53884.53;;;-143.77;47.81
13836;BME280;6988;52.614;13.500;2023-07-02T20:07:31;53929.69;;;-143.77;50.61
13836;BME280;6988;52.614;13.500;2023-07-02T20:12:23;53921.47;;;-143.77;51.57
13836;BME280;6988;52.614;13.500;2023-07-02T20:17:19;53919.41;;;-143.77;51.29
13836;BME280;6988;52.614;13.500;2023-07-02T20:22:13;53935.84;;;-143.77;51.65
13836;BME280;6988;52.614;13.500;2023-07-02T20:27:06;53898.91;;;-143.77;51.80
13836;BME280;6988;52.614;13.500;2023-07-02T20:31:58;53937.88;;;-143.77;51.54
13836;BME280;6988;52.614;13.500;2023-07-02T20:36:52;53933.78;;;-143.77;50.15
13836;BME280;6988;52.614;13.500;2023-07-02T20:41:45;53954.28;;;-143.77;50.73
13836;BME280;6988;52.614;13.500;2023-07-02T20:46:37;53929.69;;;-143.77;51.14
13836;BME280;6988;52.614;13.500;2023-07-02T20:51:36;53929.69;;;-143.77;51.65
13836;BME280;6988;52.614;13.500;2023-07-02T20:56:29;53962.50;;;-143.77;51.97
13836;BME280;6988;52.614;13.500;2023-07-02T21:07:30;53950.19;;;-143.77;53.64
13836;BME280;6988;52.614;13.500;2023-07-02T21:12:24;53964.56;;;-143.77;53.36
13836;BME280;6988;52.614;13.500;2023-07-02T21:17:15;54024.06;;;-143.77;53.81
13836;BME280;6988;52.614;13.500;2023-07-02T21:22:07;53978.91;;;-143.77;54.44
13836;BME280;6988;52.614;13.500;2023-07-02T21:26:59;53985.06;;;-143.77;54.70
13836;BME280;6988;52.614;13.500;2023-07-02T21:31:52;53950.19;;;-143.77;53.97
13836;BME280;6988;52.614;13.500;2023-07-02T21:36:44;53989.16;;;-143.77;53.96
13836;BME280;6988;52.614;13.500;2023-07-02T21:41:35;54005.59;;;-143.77;53.54
13836;BME280;6988;52.614;13.500;2023-07-02T22:03:53;54017.91;;;-143.77;54.66
13836;BME280;6988;52.614;13.500;2023-07-02T22:08:45;54024.06;;;-143.77;54.89
13836;BME280;6988;52.614;13.500;2023-07-02T22:13:37;54022.00;;;-143.77;55.07
13836;BME280;6988;52.614;13.500;2023-07-02T22:18:29;54015.84;;;-143.77;55.68
13836;BME280;6988;52.614;13.500;2023-07-02T22:23:24;54022.00;;;-143.77;55.60
13836;BME280;6988;52.614;13.500;2023-07-02T22:28:16;53995.31;;;-143.77;55.66
13836;BME280;6988;52.614;13.500;2023-07-02T22:33:08;54042.50;;;-143.77;55.52
13836;BME280;6988;52.614;13.500;2023-07-02T22:38:00;54036.38;;;-143.77;55.41
13836;BME280;6988;52.614;13.500;2023-07-02T22:42:53;54044.56;;;-143.77;55.58
13836;BME280;6988;52.614;13.500;2023-07-02T22:47:45;54036.38;;;-143.77;55.37
13836;BME280;6988;52.614;13.500;2023-07-02T22:52:37;54106.13;;;-143.77;55.84
13836;BME280;6988;52.614;13.500;2023-07-02T22:57:31;54058.94;;;-143.77;55.53
13836;BME280;6988;52.614;13.500;2023-07-02T23:02:25;54019.94;;;-143.77;56.05
13836;BME280;6988;52.614;13.500;2023-07-02T23:07:17;54042.50;;;-143.77;55.61
13836;BME280;6988;52.614;13.500;2023-07-02T23:12:10;54052.78;;;-143.77;56.15
13836;BME280;6988;52.614;13.500;2023-07-02T23:17:03;54050.72;;;-143.77;56.28
13836;BME280;6988;52.614;13.500;2023-07-02T23:21:56;54077.41;;;-143.77;56.31
13836;BME280;6988;52.614;13.500;2023-07-02T23:26:49;54032.25;;;-143.77;56.53
13836;BME280;6988;52.614;13.500;2023-07-02T23:31:41;54106.13;;;-143.77;56.67
13836;BME280;6988;52.614;13.500;2023-07-02T23:36:33;54081.50;;;-143.77;57.06
13836;BME280;6988;52.614;13.500;2023-07-02T23:41:26;54044.56;;;-143.77;57.37
13836;BME280;6988;52.614;13.500;2023-07-02T23:46:18;54060.97;;;-143.77;57.41
13836;BME280;6988;52.614;13.500;2023-07-02T23:51:10;54063.03;;;-143.77;57.87
13836;BME280;6988;52.614;13.500;2023-07-02T23:56:02;54089.72;;;-143.77;57.77
